Time;durP1;ratioP1;P1;durP2;ratioP2;P2;SDS_P1;SDS_P2;PMS_P1;PMS_P2;Temp;Humidity;BMP_temperature;BMP_pressure;BME280_temperature;BME280_humidity;BME280_pressure;Samples;Min_cycle;Max_cycle;Signal;HPM_P1;HPM_P2
2021/10/30 00:00:18;;;;;;;7.85;5.85;;;;;;;11.55;80.20;100046.56;678887;28;2255;-55
2021/10/30 00:00:39;;;;;;;7.88;5.90;;;;;;;11.55;80.07;100053.56;681577;28;1206;-55
2021/10/30 00:00:59;;;;;;;8.23;6.10;;;;;;;11.57;78.87;100055.25;683544;28;4661;-52
2021/10/30 00:01:20;;;;;;;8.30;6.00;;;;;;;11.57;79.39;100054.38;683805;28;1108;-53
2021/10/30 00:01:40;;;;;;;8.00;5.97;;;;;;;11.57;79.06;100049.13;683282;28;1390;-55
2021/10/30 00:02:01;;;;;;;8.70;6.45;;;;;;;11.58;78.27;100051.72;684399;28;1361;-52
2021/10/30 00:02:22;;;;;;;9.50;6.63;;;;;;;11.59;78.52;100048.22;684815;28;1048;-53
2021/10/30 00:02:44;;;;;;;9.90;6.57;;;;;;;11.61;78.10;100052.56;683842;28;3340;-51
2021/10/30 00:03:04;;;;;;;9.00;6.38;;;;;;;11.62;77.91;100054.31;683971;28;3379;-55
2021/10/30 00:03:24;;;;;;;8.80;6.00;;;;;;;11.63;78.96;100056.00;684161;28;1028;-55
2021/10/30 00:03:45;;;;;;;8.45;5.80;;;;;;;11.61;79.21;100048.19;683584;28;1085;-52
2021/10/30 00:04:05;;;;;;;7.97;5.90;;;;;;;11.60;80.18;100049.06;685154;28;4457;-55
2021/10/30 00:04:25;;;;;;;9.20;6.00;;;;;;;11.58;79.51;100051.72;684157;28;1096;-58
2021/10/30 00:04:46;;;;;;;7.77;5.70;;;;;;;11.61;79.08;100047.34;683890;28;1091;-52
2021/10/30 00:05:08;;;;;;;8.98;5.85;;;;;;;11.62;78.65;100049.91;684236;28;1227;-55
2021/10/30 00:05:29;;;;;;;8.95;6.45;;;;;;;11.64;79.88;100052.50;684061;28;1221;-52
2021/10/30 00:05:50;;;;;;;8.93;6.30;;;;;;;11.62;79.03;100049.06;683146;28;2035;-52
2021/10/30 00:06:10;;;;;;;7.97;6.07;;;;;;;11.61;78.57;100056.03;683568;28;3386;-55
2021/10/30 00:06:30;;;;;;;10.70;6.65;;;;;;;11.63;78.72;100050.78;684636;28;1062;-55
2021/10/30 00:06:52;;;;;;;10.77;6.37;;;;;;;11.63;78.43;100049.03;683422;28;4776;-52
2021/10/30 00:07:17;;;;;;;8.75;6.30;;;;;;;11.64;78.47;100042.03;684387;28;1195;-55
2021/10/30 00:07:39;;;;;;;8.32;6.25;;;;;;;11.64;79.30;100052.50;683737;28;1012;-52
2021/10/30 00:07:59;;;;;;;9.18;5.90;;;;;;;11.64;79.02;100047.28;684997;28;1309;-51
2021/10/30 00:08:20;;;;;;;8.60;5.83;;;;;;;11.64;78.76;100047.28;684448;28;1282;-54
2021/10/30 00:08:40;;;;;;;9.33;5.90;;;;;;;11.64;79.58;100047.28;683749;28;3468;-53
2021/10/30 00:09:01;;;;;;;9.50;6.00;;;;;;;11.65;79.05;100049.84;683807;28;2073;-52
2021/10/30 00:09:22;;;;;;;8.10;5.90;;;;;;;11.64;78.62;100049.88;683877;28;1345;-51
2021/10/30 00:09:43;;;;;;;8.60;6.18;;;;;;;11.64;78.72;100039.41;685325;28;1091;-54
2021/10/30 00:10:04;;;;;;;9.03;6.17;;;;;;;11.62;79.47;100047.31;686177;28;4573;-56
2021/10/30 00:10:24;;;;;;;7.57;5.70;;;;;;;11.62;78.82;100043.84;686360;28;1118;-55
2021/10/30 00:10:47;;;;;;;8.43;6.40;;;;;;;11.63;78.45;100042.91;686413;28;1111;-52
2021/10/30 00:11:08;;;;;;;9.38;6.57;;;;;;;11.68;77.86;100048.94;686495;28;1012;-54
2021/10/30 00:11:28;;;;;;;10.13;6.37;;;;;;;11.67;77.62;100041.97;686032;28;1001;-54
2021/10/30 00:11:49;;;;;;;9.35;6.30;;;;;;;11.69;77.45;100048.91;683733;28;3616;-54
2021/10/30 00:12:09;;;;;;;9.80;6.30;;;;;;;11.71;76.70;100041.03;684157;28;4040;-51
2021/10/30 00:12:31;;;;;;;9.90;6.38;;;;;;;11.72;77.30;100048.00;684122;28;1186;-52
2021/10/30 00:12:51;;;;;;;9.80;6.18;;;;;;;11.71;77.22;100043.63;683261;28;4616;-54
2021/10/30 00:13:12;;;;;;;8.93;6.10;;;;;;;11.70;77.74;100047.13;684773;28;1250;-51
2021/10/30 00:13:32;;;;;;;9.45;6.15;;;;;;;11.69;77.71;100041.06;683913;28;1102;-54
2021/10/30 00:13:53;;;;;;;9.37;6.10;;;;;;;11.75;77.58;100043.56;683380;28;1258;-55
2021/10/30 00:14:13;;;;;;;8.53;6.10;;;;;;;11.78;77.43;100041.75;681374;28;1097;-51
2021/10/30 00:14:34;;;;;;;8.50;6.13;;;;;;;11.80;77.07;100048.69;681681;28;2423;-55
2021/10/30 00:14:55;;;;;;;9.55;6.45;;;;;;;11.80;76.44;100047.84;680731;28;3819;-52
2021/10/30 00:15:15;;;;;;;9.15;6.32;;;;;;;11.81;76.27;100044.31;681702;28;1234;-55
2021/10/30 00:15:36;;;;;;;8.70;6.70;;;;;;;11.84;76.02;100037.28;684012;28;1352;-53
2021/10/30 00:15:58;;;;;;;9.67;6.80;;;;;;;11.99;75.26;100040.50;684122;28;4504;-55
2021/10/30 00:16:19;;;;;;;8.77;6.32;;;;;;;12.01;75.09;100042.19;684028;28;1378;-53
2021/10/30 00:16:39;;;;;;;10.05;6.35;;;;;;;12.17;73.83;100044.50;684304;28;2475;-50
2021/10/30 00:17:00;;;;;;;9.05;6.20;;;;;;;12.16;74.12;100035.78;684695;28;1375;-53
2021/10/30 00:17:20;;;;;;;9.47;6.33;;;;;;;12.12;74.32;100030.66;684931;28;1171;-52
2021/10/30 00:17:41;;;;;;;9.70;6.40;;;;;;;12.08;74.50;100040.31;683711;28;2967;-52
2021/10/30 00:18:01;;;;;;;8.63;6.27;;;;;;;12.06;75.25;100036.88;684246;28;3499;-50
2021/10/30 00:18:21;;;;;;;8.68;6.10;;;;;;;12.13;74.25;100034.97;684420;28;1282;-53
2021/10/30 00:18:44;;;;;;;9.40;6.00;;;;;;;12.16;74.12;100035.78;684270;28;1387;-51
2021/10/30 00:19:05;;;;;;;9.43;6.07;;;;;;;12.15;73.95;100030.56;683475;28;4602;-52
2021/10/30 00:19:25;;;;;;;9.13;6.40;;;;;;;12.24;73.43;100036.47;685043;28;1123;-56
2021/10/30 00:19:46;;;;;;;9.63;6.47;;;;;;;12.29;73.08;100033.75;683304;28;1099;-52
2021/10/30 00:20:07;;;;;;;9.77;6.40;;;;;;;12.35;73.06;100024.88;684491;28;1344;-51
2021/10/30 00:20:27;;;;;;;10.35;6.22;;;;;;;12.25;73.83;100030.34;684724;28;1087;-52
2021/10/30 00:20:48;;;;;;;10.98;6.40;;;;;;;12.26;73.57;100028.56;683555;28;3897;-53
2021/10/30 00:21:09;;;;;;;10.45;6.40;;;;;;;12.32;72.97;100023.19;683096;28;969;-54
2021/10/30 00:21:30;;;;;;;9.63;6.30;;;;;;;12.26;73.10;100029.44;684842;28;1250;-52
2021/10/30 00:21:52;;;;;;;10.27;6.47;;;;;;;12.24;73.10;100027.75;683564;28;4461;-54
2021/10/30 00:22:13;;;;;;;9.13;6.50;;;;;;;12.22;73.62;100030.38;684541;28;1151;-52
2021/10/30 00:22:34;;;;;;;8.93;6.40;;;;;;;12.23;73.75;100036.50;684617;28;1288;-52
2021/10/30 00:22:54;;;;;;;8.90;6.13;;;;;;;12.19;74.19;100034.84;684306;28;1107;-54
2021/10/30 00:23:15;;;;;;;8.53;6.27;;;;;;;12.20;74.09;100042.69;683970;28;1298;-54
2021/10/30 00:23:35;;;;;;;8.03;5.80;;;;;;;12.17;74.59;100032.28;683940;28;2072;-53
2021/10/30 00:23:56;;;;;;;8.17;6.03;;;;;;;12.13;74.03;100033.22;683163;28;1974;-51
2021/10/30 00:24:16;;;;;;;8.85;6.45;;;;;;;12.09;74.60;100035.03;683622;28;1623;-55
2021/10/30 00:24:37;;;;;;;8.13;6.20;;;;;;;12.07;74.47;100035.97;684049;28;1727;-54
2021/10/30 00:24:57;;;;;;;8.63;6.20;;;;;;;12.06;74.29;100032.50;683807;28;4444;-53
2021/10/30 00:25:18;;;;;;;8.77;6.30;;;;;;;12.05;74.60;100032.53;684239;28;1144;-53
2021/10/30 00:25:38;;;;;;;9.30;6.13;;;;;;;12.02;75.18;100035.22;683743;28;1299;-53
2021/10/30 00:25:59;;;;;;;8.80;6.50;;;;;;;12.05;74.48;100030.75;685333;28;1060;-52
2021/10/30 00:26:19;;;;;;;8.47;6.30;;;;;;;12.04;73.96;100031.66;684355;28;1072;-53
2021/10/30 00:26:39;;;;;;;8.40;6.30;;;;;;;12.05;74.04;100032.53;683081;28;3064;-53
2021/10/30 00:27:01;;;;;;;10.10;6.53;;;;;;;12.09;74.17;100028.94;683852;28;2358;-50
2021/10/30 00:27:21;;;;;;;10.13;6.15;;;;;;;12.06;73.98;100034.25;684409;28;1914;-55
2021/10/30 00:27:42;;;;;;;8.13;5.90;;;;;;;12.02;74.58;100033.44;683095;28;1242;-50
2021/10/30 00:28:02;;;;;;;8.30;5.90;;;;;;;11.98;75.13;100029.16;684028;28;4358;-52
2021/10/30 00:28:23;;;;;;;9.93;6.13;;;;;;;12.01;74.91;100041.34;684038;28;1189;-56
2021/10/30 00:28:44;;;;;;;10.60;6.30;;;;;;;11.99;75.18;100035.25;681476;28;1453;-53
2021/10/30 00:29:05;;;;;;;9.20;6.07;;;;;;;11.96;75.72;100032.72;682004;28;1196;-54
2021/10/30 00:29:25;;;;;;;9.23;6.15;;;;;;;12.00;74.65;100037.84;684670;28;2035;-54
2021/10/30 00:29:46;;;;;;;9.97;6.13;;;;;;;12.01;74.78;100036.09;682766;28;2392;-55
2021/10/30 00:30:07;;;;;;;9.10;6.40;;;;;;;11.97;74.32;100032.69;680368;28;1498;-55
2021/10/30 00:30:27;;;;;;;9.00;6.18;;;;;;;12.00;74.13;100026.50;682628;28;1081;-52
2021/10/30 00:30:47;;;;;;;8.13;6.10;;;;;;;12.03;74.03;100027.31;679353;28;4476;-53
2021/10/30 00:31:08;;;;;;;9.32;6.38;;;;;;;12.05;74.48;100022.06;681324;28;1002;-52
2021/10/30 00:31:29;;;;;;;9.35;5.80;;;;;;;12.01;74.47;100028.25;681923;28;1132;-51
2021/10/30 00:31:49;;;;;;;9.80;6.17;;;;;;;11.96;74.47;100020.47;680207;28;1037;-52
2021/10/30 00:32:09;;;;;;;9.13;6.40;;;;;;;11.95;74.52;100023.13;684834;28;1673;-51
2021/10/30 00:32:30;;;;;;;8.47;5.90;;;;;;;11.91;75.41;100023.16;684264;28;3066;-54
2021/10/30 00:32:50;;;;;;;8.80;6.00;;;;;;;11.87;75.99;100016.25;682801;28;4152;-53
2021/10/30 00:33:11;;;;;;;9.43;6.27;;;;;;;11.84;75.38;100010.22;683662;28;1158;-51
2021/10/30 00:33:31;;;;;;;8.60;6.30;;;;;;;11.80;75.80;100011.19;683635;28;1024;-51
2021/10/30 00:33:51;;;;;;;9.18;6.10;;;;;;;11.80;75.76;100014.66;683688;28;4452;-53
2021/10/30 00:34:12;;;;;;;8.40;5.70;;;;;;;11.79;76.60;100009.47;684726;28;1091;-56
2021/10/30 00:34:33;;;;;;;8.65;6.07;;;;;;;11.75;76.81;100009.53;683808;28;1088;-51
2021/10/30 00:34:53;;;;;;;8.30;6.10;;;;;;;11.72;76.28;100012.19;684039;28;1262;-52
2021/10/30 00:35:14;;;;;;;8.40;5.93;;;;;;;11.72;76.62;100012.19;683736;28;1003;-55
2021/10/30 00:35:34;;;;;;;8.73;5.88;;;;;;;11.71;76.93;100012.22;683445;28;3306;-51
2021/10/30 00:35:55;;;;;;;8.43;5.90;;;;;;;11.72;76.64;100008.72;683796;28;3673;-54
2021/10/30 00:36:15;;;;;;;8.48;5.82;;;;;;;11.72;76.96;100008.72;684328;28;1154;-52
2021/10/30 00:36:35;;;;;;;8.87;6.23;;;;;;;11.68;77.49;100005.28;684584;28;1075;-51
2021/10/30 00:36:56;;;;;;;9.18;6.07;;;;;;;11.66;77.13;100006.19;683344;28;4495;-51
2021/10/30 00:37:16;;;;;;;8.50;5.43;;;;;;;11.67;77.30;100007.94;684563;28;1286;-52
2021/10/30 00:37:37;;;;;;;7.90;5.67;;;;;;;11.65;78.03;100002.72;684487;28;1036;-54
2021/10/30 00:37:57;;;;;;;8.03;6.03;;;;;;;11.63;77.62;100006.28;684755;28;1211;-52
2021/10/30 00:38:18;;;;;;;7.87;5.57;;;;;;;11.64;77.33;100005.38;684620;28;3316;-50
2021/10/30 00:38:39;;;;;;;8.07;5.72;;;;;;;11.65;77.41;100007.13;683188;28;2235;-51
2021/10/30 00:38:59;;;;;;;7.90;5.60;;;;;;;11.66;77.34;100003.59;683088;28;3822;-53
2021/10/30 00:39:19;;;;;;;8.20;6.00;;;;;;;11.66;77.39;100008.81;684926;28;1301;-58
2021/10/30 00:39:42;;;;;;;8.50;6.00;;;;;;;11.65;78.42;100007.13;684019;28;1310;-51
2021/10/30 00:40:04;;;;;;;8.20;6.18;;;;;;;11.62;78.20;100009.81;682759;28;4348;-55
2021/10/30 00:40:25;;;;;;;8.25;6.10;;;;;;;11.59;77.33;100005.47;684874;28;1112;-54
2021/10/30 00:40:45;;;;;;;8.75;5.95;;;;;;;11.56;78.09;99998.53;683568;28;1158;-52
2021/10/30 00:41:07;;;;;;;8.13;6.17;;;;;;;11.57;78.01;99999.41;684862;28;1523;-52
2021/10/30 00:41:27;;;;;;;8.85;6.22;;;;;;;11.56;78.13;100003.78;683847;28;3145;-52
2021/10/30 00:41:49;;;;;;;10.03;6.30;;;;;;;11.53;77.39;99993.38;683349;28;2216;-51
2021/10/30 00:42:10;;;;;;;9.25;6.05;;;;;;;11.53;77.88;99993.38;684086;28;1136;-55
2021/10/30 00:42:30;;;;;;;8.55;5.97;;;;;;;11.54;77.79;99995.09;684720;28;1123;-57
2021/10/30 00:42:51;;;;;;;10.10;6.30;;;;;;;11.54;77.92;99989.84;683225;28;4425;-52
2021/10/30 00:43:12;;;;;;;10.82;6.32;;;;;;;11.53;78.96;99988.16;685174;28;1060;-51
2021/10/30 00:43:33;;;;;;;9.88;6.65;;;;;;;11.49;78.65;99988.22;684239;28;1218;-53
2021/10/30 00:43:53;;;;;;;9.43;6.38;;;;;;;11.47;78.24;99988.25;683883;28;1204;-54
2021/10/30 00:44:14;;;;;;;9.18;5.93;;;;;;;11.49;78.10;99990.84;683823;28;3262;-52
2021/10/30 00:44:35;;;;;;;9.85;6.00;;;;;;;11.49;78.14;99991.72;683319;28;3333;-51
2021/10/30 00:44:55;;;;;;;9.70;6.30;;;;;;;11.48;78.98;99992.59;684190;28;1473;-52
2021/10/30 00:45:15;;;;;;;9.13;6.35;;;;;;;11.49;78.38;99996.94;683904;28;1108;-55
2021/10/30 00:45:36;;;;;;;8.83;6.30;;;;;;;11.49;78.47;99996.06;684224;28;1270;-51
2021/10/30 00:45:56;;;;;;;8.30;6.10;;;;;;;11.49;78.66;100004.81;683504;28;4523;-57
2021/10/30 00:46:17;;;;;;;8.27;5.95;;;;;;;11.49;78.25;100002.19;684255;28;1144;-52
2021/10/30 00:46:41;;;;;;;9.00;6.60;;;;;;;11.50;77.24;100005.66;683838;28;1120;-52
2021/10/30 00:47:01;;;;;;;9.35;6.45;;;;;;;11.51;77.23;100004.78;683629;28;1321;-53
2021/10/30 00:47:22;;;;;;;9.73;6.37;;;;;;;11.51;77.69;100005.63;683763;28;2173;-51
2021/10/30 00:47:42;;;;;;;11.30;6.30;;;;;;;11.54;77.19;100008.16;683709;28;2095;-54
2021/10/30 00:48:03;;;;;;;9.90;6.57;;;;;;;11.58;76.89;100001.97;684638;28;1158;-54
2021/10/30 00:48:23;;;;;;;9.77;6.60;;;;;;;11.58;77.20;100001.13;684696;28;1136;-52
2021/10/30 00:48:43;;;;;;;9.57;6.70;;;;;;;11.57;76.51;99999.41;683096;28;1039;-55
2021/10/30 00:49:04;;;;;;;9.50;6.80;;;;;;;11.57;76.78;100005.53;683905;28;4430;-51
2021/10/30 00:49:25;;;;;;;8.97;6.30;;;;;;;11.53;78.68;99997.72;683814;28;1234;-51
2021/10/30 00:49:45;;;;;;;9.27;6.20;;;;;;;11.51;78.05;99999.53;684717;28;1058;-55
2021/10/30 00:50:07;;;;;;;8.48;6.22;;;;;;;11.48;77.98;99994.34;684064;28;1482;-52
2021/10/30 00:50:27;;;;;;;8.93;6.10;;;;;;;11.48;77.90;100000.44;684105;28;2240;-55
2021/10/30 00:50:47;;;;;;;8.53;5.80;;;;;;;11.44;78.30;99993.56;682993;28;1128;-52
2021/10/30 00:51:11;;;;;;;8.02;6.10;;;;;;;11.40;78.14;99997.13;684379;28;1428;-51
2021/10/30 00:51:35;;;;;;;10.30;6.32;;;;;;;11.37;78.30;99998.03;684181;28;1320;-55
2021/10/30 00:51:56;;;;;;;9.52;6.63;;;;;;;11.38;78.21;100001.50;683468;28;4388;-53
2021/10/30 00:52:20;;;;;;;10.07;6.35;;;;;;;11.37;78.86;99998.03;684521;28;1345;-51
2021/10/30 00:52:42;;;;;;;8.77;6.13;;;;;;;11.38;78.65;99998.88;684855;28;1477;-52
2021/10/30 00:53:02;;;;;;;8.50;6.22;;;;;;;11.44;77.70;99998.78;685055;28;1622;-59
2021/10/30 00:53:27;;;;;;;9.02;6.40;;;;;;;11.44;78.11;99993.56;683950;28;3335;-50
2021/10/30 00:53:48;;;;;;;8.43;6.40;;;;;;;11.47;76.73;99992.63;683418;28;1152;-54
2021/10/30 00:54:10;;;;;;;8.45;6.35;;;;;;;11.46;77.01;99986.50;684414;28;1471;-54
2021/10/30 00:54:31;;;;;;;7.90;6.22;;;;;;;11.48;76.54;99989.97;684160;28;1115;-50
2021/10/30 00:54:54;;;;;;;8.32;6.05;;;;;;;11.47;76.92;99998.72;684050;28;4568;-51
2021/10/30 00:55:16;;;;;;;9.00;6.05;;;;;;;11.50;77.39;99988.19;684167;28;1028;-51
2021/10/30 00:55:39;;;;;;;8.68;6.20;;;;;;;11.48;77.79;99983.88;684022;28;989;-53
2021/10/30 00:56:03;;;;;;;8.68;6.03;;;;;;;11.45;77.52;99995.28;685079;28;1147;-51
2021/10/30 00:56:24;;;;;;;9.02;6.30;;;;;;;11.43;77.75;99989.19;683311;28;3320;-52
2021/10/30 00:56:48;;;;;;;9.65;6.05;;;;;;;11.42;77.93;99995.31;683548;28;971;-53
2021/10/30 00:57:10;;;;;;;8.50;6.15;;;;;;;11.41;78.23;99991.84;684051;28;1191;-53
2021/10/30 00:57:33;;;;;;;8.65;6.28;;;;;;;11.40;78.23;99989.25;683234;28;1140;-54
2021/10/30 00:57:55;;;;;;;8.50;5.82;;;;;;;11.40;79.28;99984.03;683240;28;4345;-55
2021/10/30 00:58:16;;;;;;;9.05;6.30;;;;;;;11.37;79.66;99982.31;683777;28;1233;-54
2021/10/30 00:58:36;;;;;;;9.07;6.00;;;;;;;11.34;78.88;99984.13;683160;28;1432;-54
2021/10/30 00:59:16;;;;;;;9.40;5.95;;;;;;;11.32;78.69;99980.69;683471;28;1056;-53
2021/10/30 00:59:36;;;;;;;9.40;6.03;;;;;;;11.33;78.51;99982.44;683055;28;2643;-52
2021/10/30 00:59:57;;;;;;;9.93;5.85;;;;;;;11.32;80.15;99980.69;684124;28;1245;-53
2021/10/30 01:00:18;;;;;;;8.40;5.90;;;;;;;11.29;79.98;99983.38;684199;28;1545;-55
2021/10/30 01:00:38;;;;;;;7.78;6.00;;;;;;;11.29;79.71;99984.22;683592;28;1060;-53
2021/10/30 01:00:59;;;;;;;8.60;6.40;;;;;;;11.28;79.80;99977.25;683464;28;4434;-55
2021/10/30 01:01:20;;;;;;;9.70;6.28;;;;;;;11.28;78.45;99976.41;684572;28;1246;-53
2021/10/30 01:01:42;;;;;;;8.60;5.95;;;;;;;11.28;79.42;99981.63;684346;28;1026;-51
2021/10/30 01:02:03;;;;;;;8.70;5.95;;;;;;;11.29;79.52;99978.13;684433;28;3119;-54
2021/10/30 01:02:24;;;;;;;8.90;6.10;;;;;;;11.29;79.69;99979.00;683850;28;2168;-54
2021/10/30 01:02:44;;;;;;;9.18;6.10;;;;;;;11.27;79.76;99985.13;683768;28;1283;-52
2021/10/30 01:03:06;;;;;;;8.83;6.10;;;;;;;11.25;79.13;99983.41;684167;28;1355;-53
2021/10/30 01:03:26;;;;;;;8.57;5.80;;;;;;;11.28;78.99;99976.41;684057;28;1087;-51
2021/10/30 01:03:47;;;;;;;9.40;5.87;;;;;;;11.29;79.21;99984.22;683106;28;5027;-51
2021/10/30 01:04:07;;;;;;;9.45;6.22;;;;;;;11.28;78.95;99981.63;683179;28;1040;-51
2021/10/30 01:04:29;;;;;;;10.75;6.30;;;;;;;11.27;78.72;99978.16;686646;28;1012;-54
2021/10/30 01:04:50;;;;;;;9.68;6.15;;;;;;;11.26;79.20;99979.06;686164;28;1075;-51
2021/10/30 01:05:11;;;;;;;8.32;5.85;;;;;;;11.26;80.14;99979.06;683181;28;3665;-54
2021/10/30 01:05:31;;;;;;;10.20;6.30;;;;;;;11.23;80.02;99982.59;684162;28;2075;-52
2021/10/30 01:05:52;;;;;;;8.15;6.22;;;;;;;11.22;80.12;99985.22;683521;28;1118;-55
2021/10/30 01:06:13;;;;;;;8.30;6.20;;;;;;;11.22;79.31;99986.09;683598;28;1220;-51
2021/10/30 01:06:36;;;;;;;9.43;6.47;;;;;;;11.20;79.98;99982.66;684611;28;1052;-52
2021/10/30 01:06:58;;;;;;;10.40;6.22;;;;;;;11.21;79.44;99991.34;683660;28;4437;-52
2021/10/30 01:07:18;;;;;;;9.55;6.13;;;;;;;11.22;79.28;99987.84;682840;28;1912;-55
2021/10/30 01:07:39;;;;;;;8.40;6.10;;;;;;;11.23;79.26;99985.19;683534;28;1443;-56
2021/10/30 01:07:59;;;;;;;8.57;5.80;;;;;;;11.24;79.65;99986.06;682368;28;2984;-52
2021/10/30 01:08:20;;;;;;;9.80;5.97;;;;;;;11.25;79.45;99983.41;680948;28;3700;-52
2021/10/30 01:08:41;;;;;;;9.27;5.93;;;;;;;11.24;79.78;99989.56;680883;28;1200;-58
2021/10/30 01:09:01;;;;;;;9.00;6.05;;;;;;;11.22;80.00;99986.09;684423;28;1219;-52
2021/10/30 01:09:22;;;;;;;8.63;6.13;;;;;;;11.19;79.20;99991.38;684732;28;1515;-51
2021/10/30 01:09:42;;;;;;;9.27;5.90;;;;;;;11.19;79.13;99994.00;684833;28;968;-54
2021/10/30 01:10:03;;;;;;;9.00;6.00;;;;;;;11.17;79.35;99980.09;683604;28;4452;-54
2021/10/30 01:10:23;;;;;;;8.30;5.97;;;;;;;11.13;79.20;99986.28;683908;28;1044;-54
2021/10/30 01:10:45;;;;;;;8.70;6.03;;;;;;;11.12;79.16;99988.88;684013;28;1080;-51
2021/10/30 01:11:06;;;;;;;9.40;6.00;;;;;;;11.12;79.78;99988.88;683939;28;3673;-53
2021/10/30 01:11:27;;;;;;;8.70;5.90;;;;;;;11.10;80.11;99988.06;684068;28;2063;-54
2021/10/30 01:11:48;;;;;;;8.20;5.87;;;;;;;11.10;79.54;99985.44;683553;28;1440;-53
2021/10/30 01:12:09;;;;;;;8.82;5.70;;;;;;;11.12;80.56;99996.75;683350;28;1171;-52
2021/10/30 01:12:30;;;;;;;8.10;5.85;;;;;;;11.12;79.80;99992.38;683772;28;1238;-52
2021/10/30 01:12:51;;;;;;;7.30;5.63;;;;;;;11.14;80.27;99984.50;683456;28;4400;-54
2021/10/30 01:13:11;;;;;;;8.70;6.13;;;;;;;11.15;80.12;99994.09;684167;28;1637;-55
2021/10/30 01:13:35;;;;;;;8.53;6.00;;;;;;;11.15;79.75;99992.31;684068;28;1009;-53
2021/10/30 01:13:56;;;;;;;9.35;5.88;;;;;;;11.23;79.00;99990.44;684617;28;3157;-53
2021/10/30 01:14:18;;;;;;;7.85;5.90;;;;;;;11.24;78.47;99994.78;683383;28;3444;-53
2021/10/30 01:14:41;;;;;;;7.93;6.00;;;;;;;11.28;78.69;99992.09;684067;28;1465;-53
2021/10/30 01:15:05;;;;;;;7.80;5.82;;;;;;;11.32;77.79;99988.53;684894;28;1374;-50
2021/10/30 01:15:25;;;;;;;8.30;6.10;;;;;;;11.39;77.19;99995.38;684766;28;1147;-54
2021/10/30 01:15:45;;;;;;;8.53;6.10;;;;;;;11.42;77.44;99990.09;682128;28;4734;-53
2021/10/30 01:16:12;;;;;;;8.20;6.25;;;;;;;11.41;77.19;99993.63;684570;28;1379;-54
2021/10/30 01:16:34;;;;;;;8.18;6.10;;;;;;;11.42;77.31;99995.31;684385;28;1092;-53
2021/10/30 01:17:02;;;;;;;8.43;5.95;;;;;;;11.39;77.66;99992.75;683624;28;2059;-54
2021/10/30 01:17:23;;;;;;;8.48;5.95;;;;;;;11.51;76.54;99989.06;684013;28;3818;-53
2021/10/30 01:17:43;;;;;;;8.70;5.83;;;;;;;11.73;75.44;99990.34;683985;28;1365;-53
2021/10/30 01:18:06;;;;;;;8.45;5.68;;;;;;;11.79;75.32;99981.50;684672;28;1323;-53
2021/10/30 01:18:26;;;;;;;8.60;5.90;;;;;;;11.76;75.87;99978.94;684404;28;1052;-52
2021/10/30 01:18:49;;;;;;;9.13;5.63;;;;;;;11.74;76.58;99980.72;683592;28;4447;-52
2021/10/30 01:19:09;;;;;;;8.65;5.75;;;;;;;11.76;75.84;99981.56;683953;28;1052;-55
2021/10/30 01:19:30;;;;;;;8.83;5.70;;;;;;;11.78;75.40;99977.16;684214;28;1534;-51
2021/10/30 01:19:52;;;;;;;10.50;5.90;;;;;;;11.94;74.38;99977.75;682457;28;2106;-54
2021/10/30 01:20:21;;;;;;;9.18;5.78;;;;;;;11.90;74.79;99971.66;683958;28;3676;-53
2021/10/30 01:20:41;;;;;;;8.43;5.53;;;;;;;11.92;74.53;99969.88;683227;28;1350;-50
2021/10/30 01:21:02;;;;;;;7.67;5.60;;;;;;;11.90;74.56;99970.81;683151;28;1246;-53
2021/10/30 01:21:27;;;;;;;8.68;5.70;;;;;;;11.89;75.15;99966.47;682696;28;1302;-52
2021/10/30 01:21:48;;;;;;;8.93;5.65;;;;;;;11.85;75.68;99963.06;684290;28;5256;-54
2021/10/30 01:22:08;;;;;;;8.23;5.53;;;;;;;11.78;76.11;99966.69;684144;28;1123;-52
2021/10/30 01:22:28;;;;;;;9.40;5.90;;;;;;;11.80;74.86;99964.91;682271;28;1041;-51
2021/10/30 01:22:49;;;;;;;8.47;5.57;;;;;;;11.77;74.69;99962.34;683514;28;3075;-53
2021/10/30 01:23:09;;;;;;;9.00;5.43;;;;;;;11.74;75.19;99959.78;683595;28;3531;-53
2021/10/30 01:23:29;;;;;;;9.30;5.60;;;;;;;11.70;75.62;99963.34;684149;28;1086;-55
2021/10/30 01:23:50;;;;;;;7.93;5.50;;;;;;;11.67;75.73;99964.31;684877;28;1125;-55
2021/10/30 01:24:10;;;;;;;7.93;5.50;;;;;;;11.66;76.11;99980.91;683891;28;925;-52
2021/10/30 01:24:31;;;;;;;8.10;5.35;;;;;;;11.61;76.04;99964.41;684805;28;1091;-52
2021/10/30 01:24:52;;;;;;;8.03;5.53;;;;;;;11.61;76.46;99959.19;683457;28;4630;-55
2021/10/30 01:25:12;;;;;;;8.80;5.82;;;;;;;11.64;76.35;99966.97;684035;28;1155;-51
2021/10/30 01:25:33;;;;;;;9.03;5.60;;;;;;;11.80;75.35;99970.13;684701;28;1210;-51
2021/10/30 01:25:59;;;;;;;9.43;5.50;;;;;;;11.87;73.98;99960.41;684327;28;1899;-50
2021/10/30 01:26:23;;;;;;;8.18;5.38;;;;;;;11.85;74.03;99965.69;683855;28;3806;-52
2021/10/30 01:26:43;;;;;;;9.18;5.38;;;;;;;11.81;74.37;99964.03;683724;28;1079;-53
2021/10/30 01:27:04;;;;;;;8.90;5.60;;;;;;;11.79;74.66;99965.78;683889;28;1321;-54
2021/10/30 01:27:24;;;;;;;7.45;5.43;;;;;;;11.76;74.62;99971.09;684089;28;1915;-50
2021/10/30 01:27:45;;;;;;;9.00;5.40;;;;;;;11.76;74.48;99971.09;684239;28;1079;-54
2021/10/30 01:28:05;;;;;;;8.27;5.60;;;;;;;11.77;74.61;99967.59;683437;28;4835;-53
2021/10/30 01:28:31;;;;;;;7.95;5.53;;;;;;;11.82;74.87;99963.09;683484;28;1133;-52
2021/10/30 01:28:53;;;;;;;8.00;5.20;;;;;;;11.92;74.58;99967.25;683346;28;3233;-55
2021/10/30 01:29:14;;;;;;;7.45;5.35;;;;;;;11.89;74.65;99975.19;683922;28;3922;-54
2021/10/30 01:29:34;;;;;;;7.55;5.40;;;;;;;11.84;75.23;99970.94;682862;28;1235;-54
2021/10/30 01:29:54;;;;;;;8.30;5.63;;;;;;;11.81;74.97;99966.63;683170;28;1230;-51
2021/10/30 01:30:16;;;;;;;7.55;5.30;;;;;;;11.78;75.29;99968.44;682587;28;1071;-52
2021/10/30 01:30:37;;;;;;;7.07;5.15;;;;;;;11.74;75.45;99970.25;682852;28;1140;-53
2021/10/30 01:30:58;;;;;;;7.47;5.47;;;;;;;11.71;75.92;99971.22;681748;28;4870;-55
2021/10/30 01:31:20;;;;;;;9.00;5.65;;;;;;;11.69;75.91;99966.88;684117;28;1177;-55
2021/10/30 01:31:41;;;;;;;8.35;5.47;;;;;;;11.65;76.13;99966.06;684544;28;1791;-54
2021/10/30 01:32:02;;;;;;;7.40;5.20;;;;;;;11.63;75.59;99972.22;683139;28;1967;-52
2021/10/30 01:32:23;;;;;;;7.75;5.80;;;;;;;11.61;75.70;99964.41;684124;28;1414;-53
2021/10/30 01:32:56;;;;;;;7.70;5.60;;;;;;;11.57;76.10;99963.63;683672;28;1096;-52
2021/10/30 01:33:17;;;;;;;7.18;5.18;;;;;;;11.56;76.26;99954.03;684236;28;1228;-54
2021/10/30 01:33:37;;;;;;;8.32;5.57;;;;;;;11.55;76.82;99962.78;684233;28;1129;-54
2021/10/30 01:34:03;;;;;;;7.27;5.40;;;;;;;11.54;76.83;99966.28;684047;28;4614;-53
2021/10/30 01:34:28;;;;;;;8.13;5.43;;;;;;;11.53;76.65;99959.34;684766;28;1393;-51
2021/10/30 01:34:48;;;;;;;7.40;5.20;;;;;;;11.50;77.87;99962.00;683108;28;2318;-53
2021/10/30 01:35:09;;;;;;;9.20;5.10;;;;;;;11.48;77.25;99958.56;683325;28;3474;-55
2021/10/30 01:35:41;;;;;;;8.70;5.03;;;;;;;11.47;77.20;99961.22;684464;28;1324;-54
2021/10/30 01:36:08;;;;;;;7.88;5.22;;;;;;;11.46;77.32;99964.72;684004;28;1366;-53
2021/10/30 01:36:31;;;;;;;7.95;5.30;;;;;;;11.50;77.02;99963.78;684680;28;1287;-52
2021/10/30 01:36:51;;;;;;;8.43;5.15;;;;;;;11.52;76.68;99959.34;683620;28;4510;-52
2021/10/30 01:37:13;;;;;;;8.25;5.28;;;;;;;11.65;75.43;99949.53;684002;28;1107;-52
2021/10/30 01:37:33;;;;;;;8.05;5.32;;;;;;;11.68;75.62;99954.69;684649;28;1056;-51
2021/10/30 01:37:56;;;;;;;7.80;5.03;;;;;;;11.67;75.69;99959.06;684239;28;3586;-52
2021/10/30 01:38:17;;;;;;;7.88;5.32;;;;;;;11.74;75.52;99949.31;684485;28;1202;-53
2021/10/30 01:38:38;;;;;;;7.97;5.47;;;;;;;11.71;74.79;99952.88;683135;28;1218;-54
2021/10/30 01:38:59;;;;;;;8.40;5.40;;;;;;;11.78;74.49;99950.13;683490;28;3532;-52
2021/10/30 01:39:23;;;;;;;7.07;5.25;;;;;;;11.76;75.29;99955.38;684199;28;1263;-51
2021/10/30 01:39:43;;;;;;;7.38;5.30;;;;;;;11.81;74.38;99953.53;683961;28;1528;-51
2021/10/30 01:40:04;;;;;;;7.87;5.20;;;;;;;11.79;74.18;99952.69;683616;28;4628;-52
2021/10/30 01:40:25;;;;;;;7.75;5.25;;;;;;;11.82;74.34;99944.78;684299;28;1214;-52
2021/10/30 01:40:50;;;;;;;7.90;5.30;;;;;;;11.80;74.59;99948.34;683988;28;3636;-51
2021/10/30 01:41:10;;;;;;;8.40;5.30;;;;;;;11.78;74.58;99945.72;683014;28;2302;-53
2021/10/30 01:41:31;;;;;;;7.63;5.20;;;;;;;11.84;74.48;99958.72;683330;28;1260;-54
2021/10/30 01:41:52;;;;;;;7.17;5.30;;;;;;;11.92;74.16;99948.94;683535;28;1169;-50
2021/10/30 01:42:12;;;;;;;7.40;5.10;;;;;;;11.93;74.19;99950.66;683932;28;1200;-52